Time;durP1;ratioP1;P1;durP2;ratioP2;P2;SDS_P1;SDS_P2;PMS_P1;PMS_P2;Temp;Humidity;BMP_temperature;BMP_pressure;BME280_temperature;BME280_humidity;BME280_pressure;Samples;Min_cycle;Max_cycle;Signal;HPM_P1;HPM_P2
2024/02/27 00:01:31;;;;;;;21.52;12.10;;;5.60;99.90;;;;;;5052353;28;20060;-58
2024/02/27 00:04:01;;;;;;;20.38;11.95;;;5.50;99.90;;;;;;5055720;28;21018;-58
2024/02/27 00:06:29;;;;;;;21.27;12.02;;;5.50;99.90;;;;;;5057450;28;20032;-58
2024/02/27 00:08:56;;;;;;;16.33;9.55;;;5.60;99.90;;;;;;5056595;28;20071;-58
2024/02/27 00:11:22;;;;;;;16.30;10.73;;;5.50;99.90;;;;;;5057239;28;20517;-58
2024/02/27 00:13:47;;;;;;;16.75;10.02;;;5.50;99.90;;;;;;5059818;28;20043;-58
2024/02/27 00:16:13;;;;;;;16.92;9.82;;;5.50;99.90;;;;;;5059254;28;20586;-59
2024/02/27 00:18:39;;;;;;;18.23;10.48;;;5.50;99.90;;;;;;5060130;28;20789;-58
2024/02/27 00:21:04;;;;;;;18.20;11.07;;;5.40;99.90;;;;;;5057011;28;20112;-58
2024/02/27 00:23:31;;;;;;;15.68;9.38;;;5.40;99.90;;;;;;5061261;28;20052;-57
2024/02/27 00:25:57;;;;;;;16.08;10.80;;;5.50;99.90;;;;;;5061722;28;20019;-57
2024/02/27 00:28:22;;;;;;;15.88;9.52;;;5.40;99.90;;;;;;5058910;28;20025;-58
2024/02/27 00:30:48;;;;;;;16.23;9.65;;;5.40;99.90;;;;;;5053378;28;20501;-57
2024/02/27 00:33:13;;;;;;;15.68;9.68;;;5.40;99.90;;;;;;5052097;28;20024;-58
2024/02/27 00:35:39;;;;;;;17.33;9.80;;;5.40;99.90;;;;;;5056438;28;20123;-58
2024/02/27 00:38:04;;;;;;;17.45;10.85;;;5.40;99.90;;;;;;5057326;28;20020;-59
2024/02/27 00:40:30;;;;;;;17.00;10.65;;;5.40;99.90;;;;;;5056245;28;20086;-58
2024/02/27 00:42:55;;;;;;;21.42;10.50;;;5.40;99.90;;;;;;5058933;28;20043;-59
2024/02/27 00:45:21;;;;;;;16.50;10.40;;;5.40;99.90;;;;;;5059363;28;20028;-58
2024/02/27 00:47:46;;;;;;;17.80;11.82;;;5.40;99.90;;;;;;5059210;28;20138;-57
2024/02/27 00:50:12;;;;;;;20.48;11.32;;;5.40;99.90;;;;;;5057326;28;20670;-59
2024/02/27 00:52:37;;;;;;;18.58;10.20;;;5.40;99.90;;;;;;5056244;28;20036;-58
2024/02/27 00:55:04;;;;;;;20.25;11.38;;;5.40;99.90;;;;;;5057788;28;20034;-58
2024/02/27 00:57:33;;;;;;;16.27;10.48;;;5.40;99.90;;;;;;5059120;28;20081;-59
2024/02/27 01:00:04;;;;;;;17.58;10.80;;;5.30;99.90;;;;;;5060423;28;20036;-58
2024/02/27 01:02:29;;;;;;;19.27;11.02;;;5.30;99.90;;;;;;5060343;28;20066;-58
2024/02/27 01:04:55;;;;;;;16.10;10.77;;;5.30;99.90;;;;;;5061329;28;20025;-58
2024/02/27 01:07:20;;;;;;;18.55;10.02;;;5.30;99.90;;;;;;5060994;28;20071;-58
2024/02/27 01:09:46;;;;;;;16.80;10.65;;;5.30;99.90;;;;;;5061592;28;20036;-58
2024/02/27 01:12:11;;;;;;;19.70;8.75;;;5.30;99.90;;;;;;5053705;28;20442;-58
2024/02/27 01:14:36;;;;;;;21.27;9.68;;;5.20;99.90;;;;;;5056788;28;20028;-58
2024/02/27 01:17:02;;;;;;;17.42;10.25;;;5.20;99.90;;;;;;5061003;28;20020;-58
2024/02/27 01:19:27;;;;;;;19.95;11.02;;;5.20;99.90;;;;;;5059967;28;20016;-58
2024/02/27 01:21:59;;;;;;;16.88;10.40;;;5.20;99.90;;;;;;5060614;28;20087;-57
2024/02/27 01:24:25;;;;;;;18.05;10.75;;;5.20;99.90;;;;;;5060668;28;20105;-58
2024/02/27 01:26:50;;;;;;;17.98;10.18;;;5.20;99.90;;;;;;5062449;28;20028;-57
2024/02/27 01:29:16;;;;;;;18.10;10.52;;;5.20;99.90;;;;;;5060996;28;20028;-58
2024/02/27 01:31:41;;;;;;;16.63;10.52;;;5.20;99.90;;;;;;5060781;28;20075;-59
2024/02/27 01:34:07;;;;;;;17.42;9.68;;;5.20;99.90;;;;;;5060492;28;20078;-58
2024/02/27 01:36:32;;;;;;;17.25;9.93;;;5.10;99.90;;;;;;5060962;28;20037;-57
2024/02/27 01:38:58;;;;;;;19.90;11.13;;;5.10;99.90;;;;;;5057363;28;20031;-58
2024/02/27 01:41:23;;;;;;;21.20;10.48;;;5.10;99.90;;;;;;5062367;28;20081;-58
2024/02/27 01:43:49;;;;;;;20.70;11.75;;;5.10;99.90;;;;;;5060740;28;20052;-57
2024/02/27 01:46:20;;;;;;;20.13;10.95;;;5.10;99.90;;;;;;5060403;28;20075;-58
2024/02/27 01:48:46;;;;;;;22.30;12.15;;;5.10;99.90;;;;;;5060558;28;20135;-58
2024/02/27 01:51:14;;;;;;;23.40;12.68;;;5.10;99.90;;;;;;5060308;28;20021;-57
2024/02/27 01:53:41;;;;;;;21.65;11.52;;;5.10;99.90;;;;;;5056454;28;20044;-58
2024/02/27 01:56:10;;;;;;;18.30;11.07;;;5.10;99.90;;;;;;5060297;28;20017;-58
2024/02/27 01:58:35;;;;;;;21.38;12.63;;;5.10;99.90;;;;;;5059933;28;20057;-58
2024/02/27 02:01:03;;;;;;;22.15;12.77;;;5.00;99.90;;;;;;5061837;28;20114;-58
2024/02/27 02:03:31;;;;;;;18.33;11.73;;;5.00;99.90;;;;;;5058021;28;20315;-56
2024/02/27 02:05:59;;;;;;;18.23;11.85;;;5.10;99.90;;;;;;5058103;28;21000;-58
2024/02/27 02:08:27;;;;;;;15.55;10.32;;;5.00;99.90;;;;;;5059632;28;20486;-58
2024/02/27 02:10:52;;;;;;;20.88;10.55;;;5.00;99.90;;;;;;5059708;28;20044;-58
2024/02/27 02:13:18;;;;;;;18.75;11.20;;;5.00;99.90;;;;;;5059887;28;20029;-57
2024/02/27 02:15:43;;;;;;;20.00;11.23;;;5.00;99.90;;;;;;5059946;28;20169;-59
2024/02/27 02:18:09;;;;;;;19.95;12.02;;;5.00;99.90;;;;;;5055550;28;20037;-58
2024/02/27 02:20:34;;;;;;;17.13;10.60;;;5.00;99.90;;;;;;5057373;28;20133;-57
2024/02/27 02:23:01;;;;;;;18.70;12.18;;;5.00;99.90;;;;;;5051216;28;20074;-58
2024/02/27 02:25:30;;;;;;;19.13;11.30;;;5.00;99.90;;;;;;5059570;28;20028;-57
2024/02/27 02:27:56;;;;;;;17.17;10.88;;;5.00;99.90;;;;;;5059534;28;20490;-58
2024/02/27 02:30:21;;;;;;;20.35;10.98;;;5.00;99.90;;;;;;5058210;28;20153;-58
2024/02/27 02:32:51;;;;;;;19.90;11.45;;;5.00;99.90;;;;;;5056677;28;20024;-57
2024/02/27 02:35:17;;;;;;;18.85;11.10;;;5.00;99.90;;;;;;5055023;28;20026;-58
2024/02/27 02:37:47;;;;;;;18.48;11.18;;;5.00;99.90;;;;;;5059521;28;20518;-58
2024/02/27 02:40:14;;;;;;;18.23;9.90;;;5.00;99.90;;;;;;5056186;28;20100;-58
2024/02/27 02:42:40;;;;;;;19.08;9.13;;;5.00;99.90;;;;;;5058211;28;20124;-58
2024/02/27 02:45:06;;;;;;;21.10;11.15;;;5.00;99.90;;;;;;5054100;28;20151;-58
2024/02/27 02:47:31;;;;;;;16.58;9.73;;;5.00;99.90;;;;;;5052812;28;20192;-57
2024/02/27 02:49:57;;;;;;;18.08;11.38;;;5.00;99.90;;;;;;5056328;28;20025;-58
2024/02/27 02:52:22;;;;;;;16.05;9.70;;;5.00;99.90;;;;;;5054240;28;20023;-58
2024/02/27 02:54:48;;;;;;;17.58;10.20;;;5.00;99.90;;;;;;5050935;28;20192;-57
2024/02/27 02:57:13;;;;;;;16.33;10.75;;;5.00;99.90;;;;;;5061279;28;20020;-58
2024/02/27 02:59:39;;;;;;;21.23;11.02;;;5.00;99.90;;;;;;5054755;28;20086;-58
2024/02/27 03:02:04;;;;;;;19.25;11.07;;;5.00;99.90;;;;;;5059133;28;20025;-57
2024/02/27 03:04:30;;;;;;;19.27;10.52;;;5.00;99.90;;;;;;5059126;28;20078;-59
2024/02/27 03:06:55;;;;;;;19.58;11.75;;;5.00;99.90;;;;;;5058917;28;20040;-58
2024/02/27 03:09:21;;;;;;;24.00;11.60;;;5.00;99.90;;;;;;5060942;28;20042;-58
2024/02/27 03:11:49;;;;;;;19.30;11.88;;;5.00;99.90;;;;;;5060195;28;20028;-58
2024/02/27 03:14:15;;;;;;;18.55;11.82;;;5.00;99.90;;;;;;5058985;28;20040;-58
2024/02/27 03:16:41;;;;;;;18.60;10.85;;;5.00;99.90;;;;;;5055938;28;20115;-59
2024/02/27 03:19:06;;;;;;;18.67;10.40;;;5.00;99.90;;;;;;5054885;28;20104;-59
2024/02/27 03:21:32;;;;;;;20.00;11.32;;;5.00;99.90;;;;;;5058616;28;20117;-58
2024/02/27 03:23:58;;;;;;;19.17;11.43;;;5.00;99.90;;;;;;5058851;28;20709;-58
2024/02/27 03:26:23;;;;;;;16.65;10.63;;;4.90;99.90;;;;;;5057085;28;20484;-58
2024/02/27 03:28:49;;;;;;;17.45;11.00;;;5.00;99.90;;;;;;5057310;28;20032;-59
2024/02/27 03:31:14;;;;;;;17.33;10.63;;;5.00;99.90;;;;;;5058820;28;20107;-58
2024/02/27 03:33:40;;;;;;;16.33;10.63;;;5.00;99.90;;;;;;5059019;28;20114;-58
2024/02/27 03:36:05;;;;;;;16.00;9.38;;;5.00;99.90;;;;;;5058495;28;20027;-57
2024/02/27 03:38:31;;;;;;;18.15;11.15;;;5.00;99.90;;;;;;5056113;28;20452;-58
2024/02/27 03:40:57;;;;;;;15.25;9.65;;;5.00;99.90;;;;;;5059507;28;20551;-58
2024/02/27 03:43:23;;;;;;;17.27;10.40;;;5.00;99.90;;;;;;5060435;28;20032;-58
2024/02/27 03:45:48;;;;;;;17.48;10.63;;;5.00;99.90;;;;;;5060246;28;20558;-58
2024/02/27 03:48:14;;;;;;;16.00;10.35;;;5.00;99.90;;;;;;5063065;28;20029;-57
2024/02/27 03:50:39;;;;;;;19.52;10.73;;;5.00;99.90;;;;;;5062318;28;20705;-58
2024/02/27 03:53:05;;;;;;;20.73;12.65;;;5.00;99.90;;;;;;5062660;28;20094;-58
2024/02/27 03:55:30;;;;;;;21.33;11.77;;;5.00;99.90;;;;;;5064619;28;20028;-56
2024/02/27 03:57:56;;;;;;;23.77;11.73;;;4.90;99.90;;;;;;5062313;28;20013;-57
2024/02/27 04:00:21;;;;;;;19.02;10.38;;;4.90;99.90;;;;;;5061179;28;20025;-58
2024/02/27 04:02:47;;;;;;;18.10;10.65;;;4.90;99.90;;;;;;5062693;28;20098;-58
2024/02/27 04:05:12;;;;;;;18.50;11.15;;;4.80;99.90;;;;;;5062255;28;20024;-58
2024/02/27 04:07:38;;;;;;;17.45;10.02;;;4.80;99.90;;;;;;5062532;28;20675;-58
2024/02/27 04:10:04;;;;;;;20.50;12.00;;;4.80;99.90;;;;;;5064071;28;20675;-58
2024/02/27 04:12:29;;;;;;;18.23;10.57;;;4.80;99.90;;;;;;5058232;28;20031;-59
2024/02/27 04:14:55;;;;;;;20.80;12.32;;;4.80;99.90;;;;;;5061707;28;20530;-57
2024/02/27 04:17:20;;;;;;;21.85;12.20;;;4.80;99.90;;;;;;5061827;28;20604;-59
2024/02/27 04:19:46;;;;;;;15.75;9.50;;;4.80;99.90;;;;;;5061431;28;20032;-58
2024/02/27 04:22:11;;;;;;;16.70;10.10;;;4.80;99.90;;;;;;5063731;28;20056;-58
2024/02/27 04:24:37;;;;;;;18.08;10.57;;;4.70;99.90;;;;;;5063458;28;20028;-57
2024/02/27 04:27:03;;;;;;;19.55;10.13;;;4.70;99.90;;;;;;5062121;28;20078;-59
2024/02/27 04:29:28;;;;;;;14.70;9.88;;;4.70;99.90;;;;;;5061877;28;20024;-58
2024/02/27 04:31:54;;;;;;;17.38;9.80;;;4.60;99.90;;;;;;5061943;28;20028;-58
2024/02/27 04:34:19;;;;;;;22.00;12.05;;;4.60;99.90;;;;;;5061511;28;20057;-57
2024/02/27 04:36:47;;;;;;;23.10;13.25;;;4.60;99.90;;;;;;5063790;28;20067;-58
2024/02/27 04:39:14;;;;;;;22.13;11.52;;;4.50;99.90;;;;;;5060483;28;20493;-57
2024/02/27 04:41:39;;;;;;;21.35;13.75;;;4.50;99.90;;;;;;5061632;28;20028;-58
2024/02/27 04:44:04;;;;;;;26.08;15.80;;;4.50;99.90;;;;;;5061693;28;20571;-58
2024/02/27 04:46:30;;;;;;;25.77;14.25;;;4.50;99.90;;;;;;5061994;28;20047;-57
2024/02/27 04:48:55;;;;;;;23.73;13.07;;;4.50;99.90;;;;;;5061519;28;20032;-58
2024/02/27 04:51:21;;;;;;;25.15;12.43;;;4.50;99.90;;;;;;5061384;28;20502;-58
2024/02/27 04:53:46;;;;;;;21.38;12.95;;;4.50;99.90;;;;;;5063600;28;20052;-56
2024/02/27 04:56:12;;;;;;;19.08;11.48;;;4.50;99.90;;;;;;5061378;28;20418;-58
2024/02/27 04:58:37;;;;;;;23.95;12.82;;;4.50;99.90;;;;;;5061191;28;20669;-57
2024/02/27 05:01:03;;;;;;;22.80;12.77;;;4.50;99.90;;;;;;5059967;28;20059;-58
2024/02/27 05:03:28;;;;;;;22.80;13.25;;;4.50;99.90;;;;;;5058578;28;20036;-58
2024/02/27 05:05:54;;;;;;;24.88;13.85;;;4.50;99.90;;;;;;5061061;28;20104;-58
2024/02/27 05:08:20;;;;;;;26.38;14.63;;;4.50;99.90;;;;;;5063167;28;20024;-57
2024/02/27 05:10:45;;;;;;;25.42;15.13;;;4.50;99.90;;;;;;5061015;28;20049;-52
2024/02/27 05:13:12;;;;;;;26.33;15.55;;;4.50;99.90;;;;;;5061083;28;20256;-52
2024/02/27 05:15:37;;;;;;;28.48;16.77;;;4.50;99.90;;;;;;5061288;28;20038;-48
2024/02/27 05:18:03;;;;;;;23.40;13.38;;;4.50;99.90;;;;;;5061351;28;20028;-46
2024/02/27 05:20:29;;;;;;;25.73;15.35;;;4.50;99.90;;;;;;5060890;28;20649;-46
2024/02/27 05:22:54;;;;;;;24.75;14.75;;;4.50;99.90;;;;;;5059277;28;20578;-50
2024/02/27 05:25:20;;;;;;;24.27;14.38;;;4.50;99.90;;;;;;5056789;28;20024;-50
2024/02/27 05:27:45;;;;;;;23.92;13.52;;;4.50;99.90;;;;;;5056959;28;20036;-50
2024/02/27 05:30:11;;;;;;;24.77;13.00;;;4.50;99.90;;;;;;5056952;28;20107;-51
2024/02/27 05:32:37;;;;;;;26.35;14.25;;;4.50;99.90;;;;;;5061070;28;20031;-50
2024/02/27 05:35:04;;;;;;;22.95;14.05;;;4.40;99.90;;;;;;5060778;28;20197;-48
2024/02/27 05:37:29;;;;;;;24.00;14.25;;;4.40;99.90;;;;;;5062816;28;20035;-49
2024/02/27 05:39:55;;;;;;;25.20;14.15;;;4.40;99.90;;;;;;5056898;28;20776;-49
2024/02/27 05:42:22;;;;;;;24.70;14.00;;;4.30;99.90;;;;;;5060501;28;20486;-49
2024/02/27 05:44:47;;;;;;;26.83;16.15;;;4.30;99.90;;;;;;5060752;28;20020;-47
2024/02/27 05:47:13;;;;;;;26.23;15.02;;;4.30;99.90;;;;;;5059067;28;20032;-52
2024/02/27 05:49:38;;;;;;;29.75;14.85;;;4.30;99.90;;;;;;5052643;28;20036;-49
2024/02/27 05:52:04;;;;;;;33.45;18.38;;;4.30;99.90;;;;;;5057641;28;20386;-49
2024/02/27 05:54:29;;;;;;;33.60;17.98;;;4.30;99.90;;;;;;5055457;28;20028;-53
2024/02/27 05:56:55;;;;;;;28.60;15.52;;;4.30;99.90;;;;;;5060555;28;20028;-51
2024/02/27 05:59:20;;;;;;;24.95;14.95;;;4.30;99.90;;;;;;5060395;28;20029;-52
2024/02/27 06:01:46;;;;;;;41.25;20.13;;;4.30;99.90;;;;;;5056220;28;20032;-48
2024/02/27 06:04:12;;;;;;;23.65;14.48;;;4.20;99.90;;;;;;5060087;28;20016;-51
2024/02/27 06:06:37;;;;;;;23.70;14.68;;;4.20;99.90;;;;;;5053217;28;20029;-48
2024/02/27 06:09:03;;;;;;;21.02;12.82;;;4.20;99.90;;;;;;5056016;28;20484;-50
2024/02/27 06:11:29;;;;;;;23.73;13.23;;;4.20;99.90;;;;;;5055975;28;20020;-51
2024/02/27 06:13:54;;;;;;;21.80;12.25;;;4.20;99.90;;;;;;5056174;28;20511;-50
2024/02/27 06:16:20;;;;;;;25.20;11.88;;;4.20;99.90;;;;;;5054764;28;20019;-51
2024/02/27 06:18:47;;;;;;;21.40;12.43;;;4.20;99.90;;;;;;5053387;28;20028;-53
2024/02/27 06:23:57;;;;;;;19.83;11.15;;;4.20;99.90;;;;;;5055519;28;20059;-48
2024/02/27 06:26:23;;;;;;;23.10;13.07;;;4.30;99.90;;;;;;5059252;28;20033;-50
2024/02/27 06:28:48;;;;;;;24.13;11.95;;;4.30;99.90;;;;;;5059834;28;20028;-50
2024/02/27 06:31:14;;;;;;;20.13;10.77;;;4.40;99.90;;;;;;5060219;28;20074;-51
2024/02/27 06:33:39;;;;;;;19.20;12.15;;;4.40;99.90;;;;;;5059814;28;20024;-51
2024/02/27 06:36:05;;;;;;;26.23;13.82;;;4.50;99.90;;;;;;5055186;28;20043;-47
2024/02/27 06:38:30;;;;;;;24.42;12.82;;;4.60;99.90;;;;;;5059052;28;20402;-48
2024/02/27 06:40:56;;;;;;;23.60;14.57;;;4.60;99.90;;;;;;5052762;28;20115;-50
2024/02/27 06:43:21;;;;;;;26.05;15.73;;;4.70;99.90;;;;;;5058744;28;20036;-50
2024/02/27 06:45:47;;;;;;;21.38;13.15;;;4.70;99.90;;;;;;5058274;28;20124;-48
2024/02/27 06:48:14;;;;;;;29.13;16.77;;;4.80;99.90;;;;;;5059568;28;20036;-50
2024/02/27 06:50:40;;;;;;;38.42;21.90;;;4.80;99.90;;;;;;5059348;28;20025;-52
2024/02/27 06:53:08;;;;;;;38.25;20.52;;;4.80;99.90;;;;;;5059646;28;20029;-49
2024/02/27 06:55:34;;;;;;;33.42;20.60;;;4.90;99.90;;;;;;5059019;28;20048;-50
2024/02/27 06:57:59;;;;;;;37.17;20.95;;;4.90;99.90;;;;;;5059177;28;20056;-51
2024/02/27 07:00:25;;;;;;;37.30;21.40;;;4.90;99.90;;;;;;5059550;28;20025;-50
2024/02/27 07:02:51;;;;;;;34.30;19.65;;;4.90;99.90;;;;;;5061022;28;20029;-50
2024/02/27 07:05:16;;;;;;;39.80;21.73;;;5.00;99.90;;;;;;5059406;28;20016;-50
2024/02/27 07:07:41;;;;;;;41.78;22.15;;;5.00;99.90;;;;;;5059379;28;20029;-48
2024/02/27 07:10:07;;;;;;;42.92;22.02;;;5.10;99.90;;;;;;5048751;28;20048;-51
2024/02/27 07:12:33;;;;;;;35.50;18.83;;;5.10;99.90;;;;;;5054986;28;20064;-49
2024/02/27 07:14:59;;;;;;;34.13;18.05;;;5.20;99.90;;;;;;5059890;28;20055;-48
2024/02/27 07:17:25;;;;;;;37.55;19.85;;;5.20;99.90;;;;;;5059386;28;20107;-47
2024/02/27 07:19:51;;;;;;;37.30;21.75;;;5.20;99.90;;;;;;5057248;28;20040;-47
2024/02/27 07:22:16;;;;;;;46.33;24.80;;;5.20;99.90;;;;;;5058620;28;20509;-47
2024/02/27 07:24:42;;;;;;;43.55;23.50;;;5.30;99.90;;;;;;5054894;28;20089;-47
2024/02/27 07:27:07;;;;;;;50.42;24.75;;;5.20;99.90;;;;;;5055028;28;20509;-48
2024/02/27 07:29:33;;;;;;;50.40;26.88;;;5.30;99.90;;;;;;5054702;28;20029;-46
2024/02/27 07:32:00;;;;;;;47.05;24.75;;;5.30;99.90;;;;;;5060967;28;20054;-47
2024/02/27 07:34:25;;;;;;;40.47;21.48;;;5.30;99.90;;;;;;5054687;28;20029;-47
2024/02/27 07:36:51;;;;;;;49.72;25.98;;;5.30;99.90;;;;;;5052087;28;20860;-50
2024/02/27 07:39:17;;;;;;;48.95;24.50;;;5.40;99.90;;;;;;5051198;28;20379;-50
2024/02/27 07:41:43;;;;;;;57.22;27.50;;;5.40;99.90;;;;;;5054330;28;20409;-47
2024/02/27 07:44:08;;;;;;;49.33;26.77;;;5.50;99.90;;;;;;5050715;28;20017;-49
2024/02/27 07:46:34;;;;;;;52.83;26.92;;;5.50;99.90;;;;;;5056365;28;20107;-46
2024/02/27 07:49:00;;;;;;;53.63;27.55;;;5.60;99.90;;;;;;5050595;28;20025;-48
2024/02/27 07:51:32;;;;;;;47.72;25.75;;;5.70;99.90;;;;;;5058510;28;20027;-49
2024/02/27 07:53:59;;;;;;;52.05;27.05;;;5.70;99.90;;;;;;5057147;28;20040;-46
2024/02/27 07:56:27;;;;;;;48.25;23.52;;;5.80;99.90;;;;;;5050163;28;20033;-47
2024/02/27 07:58:52;;;;;;;47.50;23.88;;;5.90;99.90;;;;;;5058594;28;20581;-51
2024/02/27 08:01:18;;;;;;;49.75;26.05;;;6.00;99.90;;;;;;5053563;28;20100;-47
2024/02/27 08:03:43;;;;;;;49.30;25.33;;;6.00;99.90;;;;;;5054253;28;20111;-50
2024/02/27 08:06:09;;;;;;;51.35;24.38;;;6.10;99.90;;;;;;5055984;28;20031;-47
2024/02/27 08:08:34;;;;;;;43.10;23.13;;;6.10;99.90;;;;;;5058354;28;20025;-48
2024/02/27 08:11:02;;;;;;;42.25;21.08;;;6.10;99.90;;;;;;5054263;28;20533;-49
2024/02/27 08:13:28;;;;;;;47.17;24.83;;;6.20;99.90;;;;;;5052932;28;20047;-46
2024/02/27 08:15:54;;;;;;;54.70;26.25;;;6.30;99.90;;;;;;5056939;28;20048;-48
2024/02/27 08:18:19;;;;;;;42.38;22.90;;;6.20;99.90;;;;;;5058138;28;20028;-50
2024/02/27 08:20:47;;;;;;;46.47;23.20;;;6.20;99.90;;;;;;5060473;28;20501;-49
2024/02/27 08:23:13;;;;;;;49.22;23.50;;;6.30;99.90;;;;;;5060113;28;20028;-49
2024/02/27 08:25:39;;;;;;;44.90;23.70;;;6.30;99.90;;;;;;5058141;28;20078;-48
2024/02/27 08:28:05;;;;;;;45.80;24.52;;;6.30;99.90;;;;;;5058134;28;20032;-50
2024/02/27 08:30:31;;;;;;;51.55;25.02;;;6.30;99.90;;;;;;5061603;28;20028;-48
2024/02/27 08:32:58;;;;;;;47.92;23.92;;;6.30;99.90;;;;;;5060420;28;20567;-49
2024/02/27 08:35:23;;;;;;;39.83;22.30;;;6.30;99.90;;;;;;5057567;28;20491;-47
2024/02/27 08:37:49;;;;;;;43.75;22.83;;;6.40;99.90;;;;;;5059987;28;20042;-50
2024/02/27 08:40:14;;;;;;;44.80;23.10;;;6.40;99.90;;;;;;5051998;28;20025;-47
2024/02/27 08:42:40;;;;;;;50.95;24.55;;;6.40;99.90;;;;;;5059017;28;20048;-46
2024/02/27 08:45:07;;;;;;;43.10;21.52;;;6.40;99.90;;;;;;5060369;28;20028;-46
2024/02/27 08:47:32;;;;;;;42.83;22.45;;;6.50;99.90;;;;;;5057443;28;20105;-50
2024/02/27 08:49:58;;;;;;;42.47;22.60;;;6.50;99.90;;;;;;5057768;28;20028;-50
2024/02/27 08:52:23;;;;;;;49.58;23.33;;;6.50;99.90;;;;;;5057328;28;20511;-48
2024/02/27 08:54:49;;;;;;;46.80;22.67;;;6.60;99.90;;;;;;5058934;28;20043;-46
2024/02/27 08:57:14;;;;;;;51.58;26.00;;;6.60;99.90;;;;;;5057034;28;20059;-50
2024/02/27 08:59:43;;;;;;;44.78;22.63;;;6.60;99.90;;;;;;5053032;28;20502;-49
2024/02/27 09:02:09;;;;;;;37.72;20.33;;;6.60;99.90;;;;;;5060296;28;20108;-47
2024/02/27 09:04:34;;;;;;;33.85;18.95;;;6.60;99.90;;;;;;5061467;28;20111;-47
2024/02/27 09:07:00;;;;;;;37.45;19.52;;;6.60;99.90;;;;;;5056228;28;20097;-51
2024/02/27 09:09:25;;;;;;;38.92;20.80;;;6.60;99.90;;;;;;5062303;28;20055;-47
2024/02/27 09:11:52;;;;;;;41.97;20.08;;;6.60;99.90;;;;;;5060651;28;20035;-47
2024/02/27 09:14:18;;;;;;;36.03;18.98;;;6.60;99.90;;;;;;5061217;28;20051;-50
2024/02/27 09:16:44;;;;;;;40.20;19.70;;;6.60;99.90;;;;;;5059839;28;20068;-48
2024/02/27 09:19:09;;;;;;;44.05;23.65;;;6.60;99.90;;;;;;5057178;28;20660;-48
2024/02/27 09:21:35;;;;;;;41.83;21.52;;;6.50;99.90;;;;;;5056996;28;20039;-47
2024/02/27 09:24:00;;;;;;;39.03;20.80;;;6.50;99.90;;;;;;5059280;28;20028;-47
2024/02/27 09:26:26;;;;;;;39.55;20.17;;;6.50;99.90;;;;;;5056300;28;20490;-49
2024/02/27 09:28:52;;;;;;;43.53;22.25;;;6.40;99.90;;;;;;5056520;28;20037;-46
2024/02/27 09:31:18;;;;;;;40.03;21.17;;;6.40;99.90;;;;;;5060566;28;20047;-47
2024/02/27 09:33:43;;;;;;;38.38;19.63;;;6.40;99.90;;;;;;5060440;28;20064;-49
2024/02/27 09:36:09;;;;;;;39.10;21.05;;;6.40;99.90;;;;;;5060713;28;20029;-47
2024/02/27 09:38:34;;;;;;;37.35;19.60;;;6.30;99.90;;;;;;5058899;28;20037;-49
2024/02/27 09:41:00;;;;;;;38.63;19.15;;;6.40;99.90;;;;;;5059815;28;20025;-48
2024/02/27 09:43:30;;;;;;;44.72;22.70;;;6.30;99.90;;;;;;5060348;28;20067;-46
2024/02/27 09:46:03;;;;;;;37.42;18.98;;;6.30;99.90;;;;;;5060176;28;20209;-46
2024/02/27 09:48:31;;;;;;;37.72;18.50;;;6.20;99.90;;;;;;5059975;28;20109;-50
2024/02/27 09:50:58;;;;;;;41.75;21.35;;;6.30;99.90;;;;;;5060558;28;20095;-48
2024/02/27 09:53:24;;;;;;;36.65;19.88;;;6.30;99.90;;;;;;5060003;28;20519;-47
2024/02/27 09:55:51;;;;;;;33.00;17.75;;;6.20;99.90;;;;;;5060578;28;20021;-49
2024/02/27 09:58:19;;;;;;;28.80;17.35;;;6.30;99.90;;;;;;5060004;28;20031;-49
2024/02/27 10:00:46;;;;;;;41.67;21.50;;;6.30;99.90;;;;;;5059547;28;20032;-49
2024/02/27 10:03:13;;;;;;;31.98;16.50;;;6.30;99.90;;;;;;5062009;28;20513;-47
2024/02/27 10:05:41;;;;;;;34.78;17.60;;;6.30;99.90;;;;;;5057786;28;20028;-49
2024/02/27 10:08:12;;;;;;;33.20;15.95;;;6.40;99.90;;;;;;5051220;28;20402;-50
2024/02/27 10:10:39;;;;;;;33.85;17.00;;;6.50;99.90;;;;;;5052903;28;20441;-50
2024/02/27 10:13:05;;;;;;;31.38;17.23;;;6.50;99.90;;;;;;5059129;28;20021;-51
2024/02/27 10:15:30;;;;;;;35.40;19.10;;;6.50;99.90;;;;;;5053366;28;20036;-46
2024/02/27 10:17:56;;;;;;;37.78;18.98;;;6.60;99.90;;;;;;5054525;28;20025;-48
2024/02/27 10:20:28;;;;;;;40.25;20.80;;;6.60;99.90;;;;;;5053030;28;20024;-47
2024/02/27 10:22:53;;;;;;;34.10;18.67;;;6.50;99.90;;;;;;5055351;28;20090;-50
2024/02/27 10:25:21;;;;;;;39.90;19.65;;;6.50;99.90;;;;;;5048896;28;20182;-47
2024/02/27 10:27:46;;;;;;;33.75;17.80;;;6.60;99.90;;;;;;5052139;28;20521;-50
2024/02/27 10:30:12;;;;;;;26.77;14.77;;;6.60;99.90;;;;;;5054576;28;20028;-48
2024/02/27 10:32:40;;;;;;;28.38;16.15;;;6.60;99.90;;;;;;5055795;28;20056;-50
2024/02/27 10:35:06;;;;;;;32.60;16.35;;;6.70;99.90;;;;;;5058084;28;20055;-47
2024/02/27 10:37:32;;;;;;;27.30;14.43;;;6.80;99.90;;;;;;5055309;28;20056;-48
2024/02/27 10:40:02;;;;;;;31.95;17.02;;;6.80;99.90;;;;;;5051230;28;20028;-51
2024/02/27 10:42:28;;;;;;;32.03;14.95;;;6.90;99.90;;;;;;5057185;28;20321;-47
2024/02/27 10:44:55;;;;;;;25.88;13.95;;;6.90;99.90;;;;;;5060900;28;20282;-46
2024/02/27 10:47:22;;;;;;;31.33;16.75;;;7.00;99.90;;;;;;5059874;28;20048;-47
2024/02/27 10:49:48;;;;;;;35.83;18.77;;;7.00;99.90;;;;;;5056191;28;20526;-46
2024/02/27 10:52:17;;;;;;;29.50;16.20;;;6.90;99.90;;;;;;5058531;28;20060;-48
2024/02/27 10:54:45;;;;;;;33.13;17.73;;;6.90;99.90;;;;;;5055253;28;20031;-46
2024/02/27 10:57:12;;;;;;;29.70;16.50;;;6.90;99.90;;;;;;5058924;28;20016;-48
2024/02/27 10:59:39;;;;;;;30.48;16.42;;;7.00;99.90;;;;;;5058850;28;20021;-48
2024/02/27 11:02:14;;;;;;;33.60;15.63;;;7.00;99.90;;;;;;5058978;28;20068;-48
2024/02/27 11:04:42;;;;;;;25.25;13.70;;;7.10;99.90;;;;;;5054925;28;20029;-50
2024/02/27 11:07:11;;;;;;;30.00;17.13;;;7.10;99.90;;;;;;5058069;28;20375;-49
2024/02/27 11:09:37;;;;;;;29.60;15.27;;;7.20;99.90;;;;;;5053096;28;20094;-48
2024/02/27 11:12:03;;;;;;;31.23;17.25;;;7.20;99.90;;;;;;5051381;28;20502;-46
2024/02/27 11:14:32;;;;;;;30.63;16.42;;;7.20;99.90;;;;;;5056975;28;20025;-59
2024/02/27 11:17:21;;;;;;;29.83;15.13;;;7.20;99.90;;;;;;5052577;28;20020;-59
2024/02/27 11:19:50;;;;;;;29.67;16.88;;;7.10;99.90;;;;;;5054545;28;20025;-57
2024/02/27 11:22:21;;;;;;;27.63;15.60;;;7.00;99.90;;;;;;5058789;28;20112;-56
2024/02/27 11:24:48;;;;;;;27.85;14.60;;;7.00;99.90;;;;;;5058863;28;20024;-58
2024/02/27 11:27:20;;;;;;;24.75;15.00;;;7.00;99.90;;;;;;5058636;28;20043;-58
2024/02/27 11:29:47;;;;;;;27.60;15.50;;;7.20;99.90;;;;;;5058672;28;20064;-58
2024/02/27 11:32:13;;;;;;;27.25;15.45;;;7.20;99.90;;;;;;5054456;28;20047;-58
2024/02/27 11:34:40;;;;;;;26.85;14.10;;;7.20;99.90;;;;;;5057215;28;20457;-58
2024/02/27 11:37:10;;;;;;;24.80;14.23;;;7.30;99.90;;;;;;5060495;28;20107;-57
2024/02/27 11:39:35;;;;;;;22.63;14.02;;;7.30;99.90;;;;;;5050969;28;20490;-58
2024/02/27 11:42:05;;;;;;;28.60;14.13;;;7.40;99.90;;;;;;5057284;28;20040;-58
2024/02/27 11:44:30;;;;;;;28.75;14.75;;;7.50;99.90;;;;;;5058206;28;20534;-58
2024/02/27 11:46:56;;;;;;;25.55;15.15;;;7.50;99.90;;;;;;5058690;28;20028;-58
2024/02/27 11:49:37;;;;;;;22.08;13.40;;;7.50;99.90;;;;;;5058217;28;20020;-57
2024/02/27 11:52:03;;;;;;;23.38;14.32;;;7.60;99.90;;;;;;5054733;28;20509;-59
2024/02/27 11:54:33;;;;;;;24.58;13.18;;;7.50;99.90;;;;;;5058128;28;20025;-58
2024/02/27 11:57:00;;;;;;;25.05;12.60;;;7.50;99.90;;;;;;5058382;28;20020;-57
2024/02/27 11:59:32;;;;;;;17.40;11.18;;;7.50;99.90;;;;;;5058511;28;20137;-58
2024/02/27 12:02:00;;;;;;;24.13;13.88;;;7.60;99.90;;;;;;5058426;28;20025;-57
2024/02/27 12:04:26;;;;;;;22.65;14.15;;;7.50;99.90;;;;;;5060198;28;20024;-58
2024/02/27 12:06:52;;;;;;;22.45;13.40;;;7.60;99.90;;;;;;5062328;28;20119;-58
2024/02/27 12:09:24;;;;;;;25.30;13.38;;;7.50;99.90;;;;;;5062152;28;20171;-57
2024/02/27 12:11:49;;;;;;;22.67;12.55;;;7.50;99.90;;;;;;5062289;28;20040;-58
2024/02/27 12:14:16;;;;;;;21.23;11.85;;;7.50;99.90;;;;;;5064398;28;20735;-58
2024/02/27 12:16:42;;;;;;;23.42;12.57;;;7.60;99.90;;;;;;5062662;28;20537;-57
2024/02/27 12:19:08;;;;;;;20.83;12.60;;;7.60;99.90;;;;;;5062089;28;20021;-58
2024/02/27 12:21:34;;;;;;;27.73;14.98;;;7.60;99.90;;;;;;5061854;28;20041;-58
2024/02/27 12:24:14;;;;;;;21.60;13.25;;;7.50;99.90;;;;;;5054601;28;20028;-58
2024/02/27 12:26:41;;;;;;;22.92;12.93;;;7.60;99.90;;;;;;5056628;28;20037;-58
2024/02/27 12:29:09;;;;;;;25.35;14.23;;;7.60;99.90;;;;;;5058127;28;20035;-58
2024/02/27 12:31:35;;;;;;;23.55;13.73;;;7.60;99.90;;;;;;5059237;28;20093;-59
2024/02/27 12:34:01;;;;;;;23.15;12.07;;;7.50;99.90;;;;;;5059859;28;20036;-59
2024/02/27 12:36:27;;;;;;;25.27;14.95;;;7.50;99.90;;;;;;5059591;28;20056;-58